createdAt,value
2018-12-18T00:00:34.066Z,89.56
2018-12-18T00:02:08.180Z,89.46
2018-12-18T00:03:39.434Z,89.25
2018-12-18T00:07:29.983Z,88.55
2018-12-18T00:09:00.671Z,89.15
2018-12-18T00:10:36.628Z,88.40
2018-12-18T00:12:06.706Z,89.28
2018-12-18T00:13:36.971Z,89.11
2018-12-18T00:15:07.324Z,87.93
2018-12-18T00:16:37.647Z,89.04
2018-12-18T00:18:08.354Z,88.30
2018-12-18T00:19:39.131Z,88.43
2018-12-18T00:21:09.160Z,89.18
2018-12-18T00:22:39.281Z,88.98
2018-12-18T00:24:09.774Z,88.00
2018-12-18T00:25:42.062Z,89.31
2018-12-18T00:27:12.385Z,88.37
2018-12-18T00:28:42.597Z,88.96
2018-12-18T00:30:12.849Z,89.40
2018-12-18T00:31:43.739Z,89.32
2018-12-18T00:33:14.066Z,89.66
2018-12-18T00:34:44.327Z,90.40
2018-12-18T00:36:22.788Z,90.52
2018-12-18T00:37:52.893Z,91.06
2018-12-18T00:39:22.984Z,90.22
2018-12-18T00:40:53.184Z,91.29
2018-12-18T00:42:25.203Z,90.36
2018-12-18T00:43:55.500Z,90.31
2018-12-18T00:45:25.614Z,89.75
2018-12-18T00:46:55.571Z,90.22
2018-12-18T00:48:25.706Z,90.41
2018-12-18T00:49:55.805Z,89.62
2018-12-18T00:51:25.854Z,91.00
2018-12-18T00:52:55.955Z,90.68
2018-12-18T00:54:26.078Z,89.88
2018-12-18T00:55:56.144Z,91.35
2018-12-18T00:57:26.446Z,91.10
2018-12-18T00:58:56.782Z,90.65
2018-12-18T01:00:27.383Z,90.36
2018-12-18T01:01:59.378Z,90.75
2018-12-18T01:03:31.775Z,91.13
2018-12-18T01:05:02.907Z,90.55
2018-12-18T01:06:34.062Z,90.32
2018-12-18T01:08:04.865Z,90.67
2018-12-18T01:09:37.016Z,90.16
2018-12-18T01:11:07.448Z,90.56
2018-12-18T01:12:41.683Z,90.29
2018-12-18T01:14:12.718Z,89.73
2018-12-18T01:15:44.963Z,90.57
2018-12-18T01:17:17.278Z,89.78
2018-12-18T01:18:49.435Z,90.51
2018-12-18T01:20:20.289Z,90.87
2018-12-18T01:21:52.820Z,89.65
2018-12-18T01:23:25.244Z,90.67
2018-12-18T01:24:59.130Z,90.42
2018-12-18T01:26:31.686Z,90.17
2018-12-18T01:28:03.958Z,90.45
2018-12-18T01:29:34.765Z,89.79
2018-12-18T01:31:05.322Z,90.94
2018-12-18T01:32:37.380Z,90.31
2018-12-18T01:34:07.862Z,90.36
2018-12-18T01:35:40.198Z,88.96
2018-12-18T01:37:10.583Z,88.99
2018-12-18T01:38:41.154Z,89.75
2018-12-18T01:40:13.154Z,89.07
2018-12-18T01:41:43.658Z,89.40
2018-12-18T01:43:15.902Z,88.10
2018-12-18T01:44:48.384Z,89.01
2018-12-18T01:46:18.594Z,88.82
2018-12-18T01:47:49.071Z,89.13
2018-12-18T01:49:21.368Z,88.24
2018-12-18T01:50:51.581Z,89.61
2018-12-18T01:52:21.803Z,89.05
2018-12-18T01:53:54.189Z,90.09
2018-12-18T01:55:24.559Z,88.77
2018-12-18T01:56:54.771Z,89.31
2018-12-18T01:58:24.900Z,89.43
2018-12-18T01:59:55.206Z,88.15
2018-12-18T02:01:25.402Z,88.19
2018-12-18T02:02:55.558Z,89.07
2018-12-18T02:04:25.786Z,88.33
2018-12-18T02:05:56.159Z,88.43
2018-12-18T02:07:26.163Z,88.74
2018-12-18T02:08:56.349Z,89.38
2018-12-18T02:10:26.698Z,89.91
2018-12-18T02:11:56.931Z,89.41
2018-12-18T02:13:28.944Z,88.76
2018-12-18T02:14:59.039Z,90.12
2018-12-18T02:16:29.197Z,89.43
2018-12-18T02:17:59.176Z,90.26
2018-12-18T02:19:31.480Z,90.40
2018-12-18T02:21:01.713Z,90.13
2018-12-18T02:22:32.005Z,89.73
2018-12-18T02:24:04.198Z,90.54
2018-12-18T02:25:35.027Z,89.62
2018-12-18T02:27:07.632Z,90.57
2018-12-18T02:28:39.655Z,89.40
2018-12-18T02:30:11.959Z,91.07
2018-12-18T02:31:44.715Z,91.10
2018-12-18T02:33:19.689Z,91.19
2018-12-18T02:34:54.029Z,91.73
2018-12-18T02:36:28.773Z,91.98
2018-12-18T02:38:01.640Z,91.01
2018-12-18T02:39:34.489Z,91.43
2018-12-18T02:41:08.428Z,91.00
2018-12-18T02:42:41.561Z,91.02
2018-12-18T02:44:12.723Z,90.09
2018-12-18T02:45:44.920Z,90.92
2018-12-18T02:47:17.157Z,90.08
2018-12-18T02:48:49.245Z,89.85
2018-12-18T02:50:21.695Z,89.29
2018-12-18T02:51:53.392Z,90.55
2018-12-18T02:53:24.192Z,90.63
2018-12-18T02:54:54.852Z,90.04
2018-12-18T02:56:26.924Z,90.57
2018-12-18T02:58:01.571Z,90.75
2018-12-18T02:59:35.553Z,90.67
2018-12-18T03:01:06.696Z,90.82
2018-12-18T03:02:38.733Z,91.61
2018-12-18T03:04:11.195Z,90.96
2018-12-18T03:05:44.478Z,90.88
2018-12-18T03:07:15.996Z,91.57
2018-12-18T03:08:48.301Z,90.55
2018-12-18T03:10:21.027Z,91.57
2018-12-18T03:11:53.380Z,90.80
2018-12-18T03:13:24.254Z,90.92
2018-12-18T03:14:56.675Z,90.67
2018-12-18T03:16:32.835Z,90.94
2018-12-18T03:18:03.711Z,90.51
2018-12-18T03:19:38.210Z,90.77
2018-12-18T03:21:10.868Z,90.41
2018-12-18T03:22:45.920Z,90.38
2018-12-18T03:24:18.235Z,90.74
2018-12-18T03:25:51.708Z,90.68
2018-12-18T03:27:22.615Z,90.91
2018-12-18T03:28:53.500Z,90.38
2018-12-18T03:30:26.095Z,89.80
2018-12-18T03:32:04.737Z,89.55
2018-12-18T03:33:37.007Z,90.14
2018-12-18T03:35:14.263Z,90.46
2018-12-18T03:36:46.829Z,89.89
2018-12-18T03:38:17.724Z,89.83
2018-12-18T03:39:51.944Z,90.48
2018-12-18T03:41:26.614Z,89.99
2018-12-18T03:43:02.029Z,90.27
2018-12-18T03:44:36.883Z,89.68
2018-12-18T03:46:11.678Z,89.73
2018-12-18T03:47:43.300Z,89.26
2018-12-18T03:49:15.776Z,89.87
2018-12-18T03:50:49.085Z,89.80
2018-12-18T03:52:19.711Z,89.63
2018-12-18T03:53:54.444Z,89.79
2018-12-18T03:55:29.087Z,90.57
2018-12-18T03:56:59.848Z,90.01
2018-12-18T03:58:33.916Z,90.19
2018-12-18T04:00:08.173Z,89.61
2018-12-18T04:01:40.946Z,89.94
2018-12-18T04:03:13.241Z,89.41
2018-12-18T04:04:45.943Z,90.11
2018-12-18T04:06:16.711Z,90.12
2018-12-18T04:07:49.084Z,91.12
2018-12-18T04:09:19.836Z,91.29
2018-12-18T04:10:50.810Z,90.99
2018-12-18T04:12:23.233Z,90.00
2018-12-18T04:13:55.655Z,89.40
2018-12-18T04:15:28.261Z,89.09
2018-12-18T04:17:00.116Z,89.56
2018-12-18T04:18:32.323Z,89.96
2018-12-18T04:20:03.551Z,90.40
2018-12-18T04:21:34.240Z,90.25
2018-12-18T04:23:06.143Z,88.91
2018-12-18T04:24:38.324Z,89.45
2018-12-18T04:26:09.159Z,88.21
2018-12-18T04:27:42.621Z,89.37
2018-12-18T04:29:16.587Z,88.50
2018-12-18T04:30:49.130Z,88.27
2018-12-18T04:32:21.345Z,87.54
2018-12-18T04:33:52.134Z,88.67
2018-12-18T04:35:23.956Z,88.68
2018-12-18T04:36:56.440Z,87.31
2018-12-18T04:38:27.230Z,88.06
2018-12-18T04:40:01.665Z,87.88
2018-12-18T04:41:32.567Z,87.43
2018-12-18T04:43:04.777Z,88.54
2018-12-18T04:44:37.872Z,88.11
2018-12-18T04:46:08.383Z,88.37
2018-12-18T04:47:41.045Z,87.88
2018-12-18T04:49:12.336Z,88.40
2018-12-18T04:50:46.437Z,87.40
2018-12-18T04:52:18.488Z,87.27
2018-12-18T04:53:50.727Z,88.60
2018-12-18T04:55:21.416Z,88.74
2018-12-18T04:56:54.084Z,89.46
2018-12-18T04:58:25.755Z,89.89
2018-12-18T05:00:00.097Z,88.88
2018-12-18T05:01:32.141Z,88.94
2018-12-18T05:03:02.643Z,90.03
2018-12-18T05:04:34.931Z,90.18
2018-12-18T05:06:07.371Z,89.12
2018-12-18T05:07:39.397Z,89.89
2018-12-18T05:09:11.718Z,89.88
2018-12-18T05:10:45.284Z,90.25
2018-12-18T05:12:20.516Z,89.97
2018-12-18T05:13:55.343Z,89.46
2018-12-18T05:15:29.285Z,90.13
2018-12-18T05:17:02.818Z,89.41
2018-12-18T05:18:34.928Z,90.12
2018-12-18T05:20:09.456Z,89.90
2018-12-18T05:21:39.500Z,90.40
2018-12-18T05:23:09.399Z,90.75
2018-12-18T05:24:39.298Z,90.30
2018-12-18T05:26:09.197Z,89.38
2018-12-18T05:27:39.092Z,90.17
2018-12-18T05:29:09.160Z,89.32
2018-12-18T05:30:39.279Z,90.01
2018-12-18T05:32:09.339Z,89.40
2018-12-18T05:33:39.230Z,88.82
2018-12-18T05:35:09.139Z,88.85
2018-12-18T05:36:39.179Z,89.40
2018-12-18T05:38:09.067Z,89.23
2018-12-18T05:39:39.103Z,87.97
2018-12-18T05:41:09.218Z,88.39
2018-12-18T05:42:39.109Z,88.50
2018-12-18T05:44:09.019Z,88.96
2018-12-18T05:45:38.918Z,88.98
2018-12-18T05:47:08.918Z,87.89
2018-12-18T05:48:38.815Z,88.89
2018-12-18T05:50:08.867Z,88.08
2018-12-18T05:51:38.750Z,88.39
2018-12-18T05:53:08.631Z,89.36
2018-12-18T05:54:38.527Z,88.81
2018-12-18T05:56:08.439Z,88.34
2018-12-18T05:57:38.337Z,88.24
2018-12-18T05:59:08.343Z,88.41
2018-12-18T06:00:38.382Z,89.01
2018-12-18T06:02:08.271Z,89.32
2018-12-18T06:03:38.159Z,90.35
2018-12-18T06:05:08.063Z,88.51
2018-12-18T06:06:37.952Z,88.51
2018-12-18T06:08:07.839Z,88.72
2018-12-18T06:09:37.740Z,88.91
2018-12-18T06:11:07.755Z,89.39
2018-12-18T06:12:37.742Z,89.07
2018-12-18T06:14:07.638Z,90.33
2018-12-18T06:15:37.539Z,90.10
2018-12-18T06:17:07.431Z,90.39
2018-12-18T06:18:37.450Z,90.91
2018-12-18T06:20:07.620Z,90.26
2018-12-18T06:21:37.578Z,90.53
2018-12-18T06:23:07.459Z,89.87
2018-12-18T06:24:37.371Z,90.56
2018-12-18T06:26:07.279Z,90.43
2018-12-18T06:27:37.170Z,89.97
2018-12-18T06:29:07.300Z,89.62
2018-12-18T06:30:37.192Z,88.55
2018-12-18T06:32:07.111Z,89.24
2018-12-18T06:33:36.991Z,88.87
2018-12-18T06:35:10.298Z,88.66
2018-12-18T06:36:38.790Z,87.85
2018-12-18T06:38:08.798Z,88.60
2018-12-18T06:39:38.707Z,87.33
2018-12-18T06:41:08.607Z,88.18
2018-12-18T06:42:38.495Z,87.95
2018-12-18T06:44:08.393Z,87.78
2018-12-18T06:45:38.290Z,88.26
2018-12-18T06:47:08.177Z,88.44
2018-12-18T06:48:38.091Z,87.47
2018-12-18T06:50:08.302Z,87.28
2018-12-18T06:51:38.317Z,87.01
2018-12-18T06:53:08.419Z,87.74
2018-12-18T06:54:38.315Z,87.53
2018-12-18T06:56:08.204Z,87.78
2018-12-18T06:57:38.086Z,88.22
2018-12-18T06:59:07.971Z,87.98
2018-12-18T07:00:37.872Z,88.18
2018-12-18T07:02:07.750Z,88.87
2018-12-18T07:03:37.739Z,89.48
2018-12-18T07:05:07.760Z,88.53
2018-12-18T07:06:37.668Z,88.51
2018-12-18T07:08:07.564Z,89.06
2018-12-18T07:09:37.565Z,88.66
2018-12-18T07:11:07.575Z,88.90
2018-12-18T07:12:37.467Z,87.92
2018-12-18T07:14:07.366Z,88.79
2018-12-18T07:15:37.286Z,89.03
2018-12-18T07:17:07.171Z,88.52
2018-12-18T07:18:37.086Z,88.41
2018-12-18T07:20:07.252Z,89.24
2018-12-18T07:21:37.163Z,88.32
2018-12-18T07:23:07.142Z,89.16
2018-12-18T07:24:37.038Z,89.39
2018-12-18T07:26:06.935Z,89.51
2018-12-18T07:27:36.819Z,89.45
2018-12-18T07:29:06.708Z,88.14
2018-12-18T07:30:36.755Z,88.49
2018-12-18T07:32:06.824Z,88.01
2018-12-18T07:33:36.778Z,89.13
2018-12-18T07:35:06.878Z,88.44
2018-12-18T07:36:37.007Z,89.04
2018-12-18T07:38:07.063Z,88.92
2018-12-18T07:39:37.048Z,88.90
2018-12-18T07:41:07.151Z,87.87
2018-12-18T07:42:37.261Z,88.31
2018-12-18T07:44:19.902Z,89.58
2018-12-18T07:45:50.027Z,89.21
2018-12-18T07:47:20.164Z,88.92
2018-12-18T07:48:50.382Z,89.50
2018-12-18T07:50:20.617Z,89.71
2018-12-18T07:51:50.629Z,88.70
2018-12-18T07:53:20.651Z,89.03
2018-12-18T07:54:50.659Z,87.88
2018-12-18T07:56:20.658Z,88.73
2018-12-18T07:57:50.629Z,88.29
2018-12-18T07:59:20.559Z,88.07
2018-12-18T08:00:50.728Z,87.45
2018-12-18T08:02:20.683Z,87.50
2018-12-18T08:03:50.655Z,87.70
2018-12-18T08:05:20.867Z,88.60
2018-12-18T08:06:50.803Z,88.41
2018-12-18T08:08:20.841Z,87.64
2018-12-18T08:09:51.011Z,87.29
2018-12-18T08:11:21.009Z,87.53
2018-12-18T08:12:54.666Z,87.81
2018-12-18T08:14:24.579Z,88.30
2018-12-18T08:15:54.534Z,88.07
2018-12-18T08:17:24.497Z,87.99
2018-12-18T08:18:54.493Z,88.03
2018-12-18T08:20:24.473Z,88.63
2018-12-18T08:21:54.412Z,87.53
2018-12-18T08:23:24.413Z,87.11
2018-12-18T08:24:54.428Z,87.97
2018-12-18T08:26:24.411Z,88.20
2018-12-18T08:33:35.744Z,88.48
2018-12-18T08:35:05.728Z,87.50
2018-12-18T08:36:35.656Z,87.31
2018-12-18T08:38:05.658Z,87.34
2018-12-18T08:39:35.597Z,87.18
2018-12-18T08:41:05.683Z,86.94
2018-12-18T08:42:35.591Z,86.94
2018-12-18T08:44:05.507Z,88.32
2018-12-18T08:45:35.500Z,87.90
2018-12-18T08:47:05.588Z,87.04
2018-12-18T08:48:35.614Z,86.41
2018-12-18T08:50:09.334Z,87.24
2018-12-18T08:51:39.338Z,86.91
2018-12-18T08:53:09.367Z,86.30
2018-12-18T08:54:39.318Z,86.85
2018-12-18T08:56:09.267Z,86.27
2018-12-18T08:57:39.232Z,85.94
2018-12-18T08:59:09.403Z,85.31
2018-12-18T09:00:39.455Z,85.34
2018-12-18T09:02:09.436Z,84.93
2018-12-18T09:03:39.432Z,84.93
2018-12-18T09:05:09.576Z,85.26
2018-12-18T09:06:39.648Z,85.48
2018-12-18T09:08:09.589Z,85.24
2018-12-18T09:09:39.556Z,84.33
2018-12-18T09:11:09.666Z,84.13
2018-12-18T09:12:39.656Z,85.31
2018-12-18T09:14:09.627Z,84.30
2018-12-18T09:15:45.531Z,85.17
2018-12-18T09:17:20.150Z,83.57
2018-12-18T09:18:50.263Z,83.20
2018-12-18T09:20:26.055Z,82.67
2018-12-18T09:21:55.979Z,83.27
2018-12-18T09:23:25.978Z,82.55
2018-12-18T09:24:55.984Z,81.59
2018-12-18T09:26:25.989Z,81.44
2018-12-18T09:27:55.919Z,81.17
2018-12-18T09:29:25.897Z,79.46
2018-12-18T09:30:55.896Z,80.59
2018-12-18T09:32:25.887Z,80.25
2018-12-18T09:33:55.888Z,79.90
2018-12-18T09:35:25.897Z,79.17
2018-12-18T09:36:56.032Z,79.12
2018-12-18T09:38:31.704Z,77.80
2018-12-18T09:40:01.936Z,78.22
2018-12-18T09:41:38.907Z,76.86
2018-12-18T09:43:14.660Z,76.81
2018-12-18T09:44:44.665Z,77.79
2018-12-18T09:46:14.762Z,78.58
2018-12-18T09:47:44.994Z,78.12
2018-12-18T09:49:15.057Z,77.01
2018-12-18T09:50:45.132Z,78.32
2018-12-18T09:53:51.943Z,78.58
2018-12-18T09:55:21.951Z,77.80
2018-12-18T09:56:51.931Z,76.76
2018-12-18T09:58:21.944Z,76.22
2018-12-18T09:59:51.898Z,73.88
2018-12-18T10:01:21.883Z,73.36
2018-12-18T10:02:51.991Z,72.35
2018-12-18T10:04:21.954Z,71.99
2018-12-18T10:05:56.334Z,72.27
2018-12-18T10:07:23.964Z,72.75
2018-12-18T10:08:53.956Z,71.51
2018-12-18T10:12:56.899Z,70.93
2018-12-18T10:14:27.105Z,69.90
2018-12-18T10:15:57.228Z,68.81
2018-12-18T10:17:27.172Z,70.22
2018-12-18T10:18:57.116Z,70.60
2018-12-18T10:20:27.060Z,71.08
2018-12-18T10:21:57.055Z,72.07
2018-12-18T10:23:27.337Z,72.38
2018-12-18T10:24:57.589Z,70.86
2018-12-18T10:26:27.787Z,71.48
2018-12-18T10:27:57.906Z,71.16
2018-12-18T10:29:27.898Z,71.16
2018-12-18T10:30:57.865Z,70.46
2018-12-18T10:32:27.843Z,70.51
2018-12-18T10:33:57.819Z,69.93
2018-12-18T10:35:27.991Z,70.38
2018-12-18T10:36:58.072Z,69.82
2018-12-18T10:38:28.204Z,70.71
2018-12-18T10:39:58.260Z,69.26
2018-12-18T10:41:28.252Z,69.65
2018-12-18T10:42:58.248Z,70.08
2018-12-18T10:44:28.261Z,69.38
2018-12-18T10:45:58.253Z,70.59
2018-12-18T10:47:28.510Z,70.65
2018-12-18T10:48:58.740Z,70.50
2018-12-18T10:50:28.784Z,69.27
2018-12-18T10:51:58.907Z,69.97
2018-12-18T10:53:29.177Z,69.62
2018-12-18T10:54:59.194Z,70.99
2018-12-18T10:56:29.194Z,70.94
2018-12-18T10:57:59.423Z,69.63
2018-12-18T10:59:29.563Z,69.49
2018-12-18T11:01:05.554Z,69.36
2018-12-18T11:02:35.810Z,69.62
2018-12-18T11:04:05.969Z,70.79
2018-12-18T11:05:36.316Z,70.23
2018-12-18T11:07:06.268Z,70.77
2018-12-18T11:08:36.901Z,69.77
2018-12-18T11:10:07.567Z,69.77
2018-12-18T11:11:38.017Z,69.95
2018-12-18T11:13:14.065Z,70.65
2018-12-18T11:14:44.446Z,69.97
2018-12-18T11:16:14.442Z,70.49
2018-12-18T11:18:03.553Z,70.24
2018-12-18T11:19:33.536Z,70.54
2018-12-18T11:21:03.499Z,71.65
2018-12-18T11:22:33.396Z,70.99
2018-12-18T11:24:03.600Z,72.60
2018-12-18T11:25:33.751Z,73.13
2018-12-18T11:27:03.753Z,72.71
2018-12-18T11:28:33.769Z,74.14
2018-12-18T11:30:04.489Z,74.63
2018-12-18T11:31:34.571Z,75.48
2018-12-18T11:33:19.163Z,75.27
2018-12-18T11:34:49.183Z,76.29
2018-12-18T11:36:19.103Z,74.98
2018-12-18T11:37:49.058Z,76.30
2018-12-18T11:39:18.970Z,75.43
2018-12-18T11:40:48.884Z,76.65
2018-12-18T11:42:18.919Z,75.73
2018-12-18T11:43:48.963Z,76.75
2018-12-18T11:45:18.892Z,76.36
2018-12-18T11:46:48.794Z,76.18
2018-12-18T11:48:18.955Z,76.23
2018-12-18T11:49:49.020Z,75.49
2018-12-18T11:51:19.021Z,76.19
2018-12-18T11:52:48.976Z,75.38
2018-12-18T11:54:18.930Z,75.93
2018-12-18T11:55:50.166Z,74.68
2018-12-18T11:57:20.226Z,74.45
2018-12-18T11:58:50.170Z,73.99
2018-12-18T12:00:20.459Z,74.30
2018-12-18T12:01:51.193Z,73.34
2018-12-18T12:03:21.283Z,73.87
2018-12-18T12:04:51.204Z,73.48
2018-12-18T12:06:23.191Z,73.55
2018-12-18T12:07:53.201Z,74.42
2018-12-18T12:09:23.221Z,73.07
2018-12-18T12:10:53.646Z,72.60
2018-12-18T12:12:23.637Z,73.55
2018-12-18T12:13:53.547Z,73.17
2018-12-18T12:15:23.512Z,72.67
2018-12-18T12:16:53.452Z,73.97
2018-12-18T12:18:23.420Z,73.06
2018-12-18T12:19:53.577Z,73.67
2018-12-18T12:21:23.526Z,72.90
2018-12-18T12:22:53.592Z,73.11
2018-12-18T12:24:23.596Z,72.52
2018-12-18T12:25:53.531Z,73.08
2018-12-18T12:27:29.263Z,72.92
2018-12-18T12:28:59.451Z,72.35
2018-12-18T12:30:29.542Z,71.81
2018-12-18T12:31:59.515Z,71.93
2018-12-18T12:33:29.551Z,73.35
2018-12-18T12:34:59.592Z,72.31
2018-12-18T12:36:30.029Z,72.60
2018-12-18T12:38:00.171Z,72.80
2018-12-18T12:39:36.827Z,72.54
2018-12-18T12:41:06.808Z,72.43
2018-12-18T12:42:36.768Z,71.19
2018-12-18T12:44:07.297Z,72.42
2018-12-18T12:45:37.385Z,71.29
2018-12-18T12:47:07.504Z,72.75
2018-12-18T12:48:43.362Z,72.16
2018-12-18T12:50:13.444Z,71.84
2018-12-18T12:51:43.807Z,72.16
2018-12-18T12:53:14.196Z,72.27
2018-12-18T12:54:44.573Z,72.54
2018-12-18T12:56:15.455Z,72.97
2018-12-18T12:57:46.093Z,72.83
2018-12-18T12:59:16.480Z,73.82
2018-12-18T13:00:46.511Z,74.00
2018-12-18T13:02:16.820Z,74.46
2018-12-18T13:03:47.545Z,74.48
2018-12-18T13:05:18.780Z,75.24
2018-12-18T13:06:49.128Z,75.32
2018-12-18T13:08:19.960Z,76.36
2018-12-18T13:09:50.088Z,75.69
2018-12-18T13:11:28.503Z,76.17
2018-12-18T13:12:58.460Z,76.88
2018-12-18T13:14:28.410Z,75.94
2018-12-18T13:15:58.337Z,76.41
2018-12-18T13:17:28.325Z,77.40
2018-12-18T13:18:58.290Z,76.45
2018-12-18T13:20:29.288Z,77.21
2018-12-18T13:21:59.239Z,77.50
2018-12-18T13:23:29.205Z,76.83
2018-12-18T13:24:59.408Z,76.46
2018-12-18T13:26:29.531Z,77.11
2018-12-18T13:27:59.472Z,76.43
2018-12-18T13:29:29.730Z,76.60
2018-12-18T13:32:36.624Z,76.30
2018-12-18T13:34:07.331Z,76.85
2018-12-18T13:35:37.318Z,76.55
2018-12-18T13:37:07.228Z,76.38
2018-12-18T13:38:37.239Z,77.10
2018-12-18T13:40:07.434Z,76.63
2018-12-18T13:41:37.353Z,77.60
2018-12-18T13:43:08.781Z,78.48
2018-12-18T13:44:40.114Z,77.64
2018-12-18T13:46:14.950Z,78.27
2018-12-18T13:47:43.928Z,79.11
2018-12-18T13:49:35.359Z,79.10
2018-12-18T13:51:06.735Z,78.35
2018-12-18T13:52:37.138Z,79.38
2018-12-18T13:54:07.933Z,78.75
2018-12-18T13:55:38.994Z,79.62
2018-12-18T13:57:10.261Z,79.14
2018-12-18T13:58:40.244Z,79.43
2018-12-18T14:00:10.319Z,80.25
2018-12-18T14:01:40.461Z,79.77
2018-12-18T14:03:10.551Z,79.54
2018-12-18T14:04:40.484Z,79.05
2018-12-18T14:06:10.442Z,80.48
2018-12-18T14:07:40.387Z,80.50
2018-12-18T14:09:10.284Z,80.31
2018-12-18T14:10:40.353Z,80.69
2018-12-18T14:12:10.297Z,80.96
2018-12-18T14:13:40.235Z,80.88
2018-12-18T14:15:10.750Z,79.98
2018-12-18T14:16:41.088Z,80.71
2018-12-18T14:18:17.300Z,80.43
2018-12-18T14:19:47.308Z,80.97
2018-12-18T14:21:17.279Z,80.60
2018-12-18T14:22:47.544Z,81.51
2018-12-18T14:24:18.018Z,80.67
2018-12-18T14:25:48.225Z,80.70
2018-12-18T14:27:18.152Z,82.07
2018-12-18T14:28:48.068Z,81.12
2018-12-18T14:30:18.180Z,81.64
2018-12-18T14:31:48.510Z,83.09
2018-12-18T14:33:24.863Z,83.27
2018-12-18T14:34:54.816Z,83.09
2018-12-18T14:36:24.892Z,82.62
2018-12-18T14:37:55.311Z,84.09
2018-12-18T14:39:25.294Z,82.85
2018-12-18T14:40:55.295Z,83.49
2018-12-18T14:42:25.283Z,83.26
2018-12-18T14:43:55.205Z,82.33
2018-12-18T14:45:25.430Z,82.37
2018-12-18T14:46:55.539Z,82.80
2018-12-18T14:48:27.317Z,82.85
2018-12-18T14:51:52.962Z,83.17
2018-12-18T14:53:22.891Z,83.19
2018-12-18T14:54:52.801Z,84.28
2018-12-18T14:56:22.738Z,84.32
2018-12-18T14:57:52.772Z,84.52
2018-12-18T14:59:23.034Z,83.58
2018-12-18T15:00:52.983Z,83.50
2018-12-18T15:02:23.046Z,83.60
2018-12-18T15:03:52.986Z,84.42
2018-12-18T15:05:22.952Z,85.14
2018-12-18T15:06:52.848Z,84.88
2018-12-18T15:08:22.762Z,84.36
2018-12-18T15:09:52.688Z,84.07
2018-12-18T15:11:26.692Z,85.27
2018-12-18T15:12:56.613Z,85.23
2018-12-18T15:14:26.535Z,85.87
2018-12-18T15:15:56.584Z,85.62
2018-12-18T15:17:26.515Z,85.38
2018-12-18T15:18:56.431Z,86.58
2018-12-18T15:20:26.409Z,86.05
2018-12-18T15:21:56.377Z,87.35
2018-12-18T15:23:26.480Z,86.43
2018-12-18T15:24:56.456Z,87.07
2018-12-18T15:26:26.383Z,86.28
2018-12-18T15:27:56.319Z,87.90
2018-12-18T15:29:26.382Z,86.72
2018-12-18T15:30:56.765Z,87.87
2018-12-18T15:32:26.986Z,88.86
2018-12-18T15:33:56.939Z,89.22
2018-12-18T15:35:27.428Z,88.25
2018-12-18T15:36:57.391Z,89.47
2018-12-18T15:38:27.356Z,88.83
2018-12-18T15:39:57.356Z,88.96
2018-12-18T15:41:27.288Z,88.79
2018-12-18T15:42:57.212Z,88.71
2018-12-18T15:44:27.144Z,87.52
2018-12-18T15:45:57.124Z,87.99
2018-12-18T15:47:27.028Z,88.22
2018-12-18T15:48:57.019Z,87.87
2018-12-18T15:50:27.271Z,87.08
2018-12-18T15:51:57.311Z,87.30
2018-12-18T15:53:27.291Z,87.37
2018-12-18T15:54:57.195Z,87.47
2018-12-18T15:56:27.300Z,87.41
2018-12-18T15:57:57.195Z,86.90
2018-12-18T15:59:27.070Z,87.23
2018-12-18T16:00:56.988Z,87.05
2018-12-18T16:02:26.969Z,86.40
2018-12-18T16:03:56.874Z,86.27
2018-12-18T16:05:26.812Z,86.80
2018-12-18T16:06:56.848Z,86.33
2018-12-18T16:08:26.731Z,87.09
2018-12-18T16:09:56.617Z,87.32
2018-12-18T16:11:26.523Z,87.88
2018-12-18T16:12:56.420Z,87.55
2018-12-18T16:14:26.433Z,89.31
2018-12-18T16:15:56.355Z,88.80
2018-12-18T16:17:26.388Z,89.66
2018-12-18T16:18:56.336Z,88.76
2018-12-18T16:20:33.032Z,87.94
2018-12-18T16:22:03.403Z,88.29
2018-12-18T16:23:33.303Z,87.50
2018-12-18T16:25:03.802Z,87.24
2018-12-18T16:26:33.723Z,85.97
2018-12-18T16:28:03.792Z,85.87
2018-12-18T16:29:33.731Z,87.00
2018-12-18T16:31:03.803Z,87.43
2018-12-18T16:32:33.730Z,86.46
2018-12-18T16:34:03.923Z,86.65
2018-12-18T16:35:33.826Z,86.71
2018-12-18T16:37:03.888Z,86.04
2018-12-18T16:38:33.777Z,86.90
2018-12-18T16:40:03.899Z,86.55
2018-12-18T16:41:33.831Z,86.58
2018-12-18T16:43:03.801Z,85.91
2018-12-18T16:44:33.756Z,85.36
2018-12-18T16:46:03.912Z,84.31
2018-12-18T16:47:33.842Z,84.71
2018-12-18T16:49:04.021Z,84.66
2018-12-18T16:50:34.827Z,83.39
2018-12-18T16:52:05.275Z,84.80
2018-12-18T16:53:35.374Z,85.06
2018-12-18T16:55:05.847Z,84.09
2018-12-18T16:56:36.000Z,84.61
2018-12-18T16:58:06.014Z,83.91
2018-12-18T16:59:36.097Z,84.39
2018-12-18T17:01:06.003Z,82.95
2018-12-18T17:02:36.196Z,84.20
2018-12-18T17:04:06.087Z,84.22
2018-12-18T17:05:35.992Z,83.30
2018-12-18T17:07:05.936Z,83.24
2018-12-18T17:08:35.882Z,83.93
2018-12-18T17:10:09.118Z,84.59
2018-12-18T17:11:39.020Z,84.43
2018-12-18T17:13:08.983Z,84.86
2018-12-18T17:14:39.014Z,83.26
2018-12-18T17:16:08.970Z,84.02
2018-12-18T17:17:38.967Z,83.48
2018-12-18T17:19:09.018Z,83.86
2018-12-18T17:20:39.124Z,84.47
2018-12-18T17:22:09.263Z,84.80
2018-12-18T17:23:39.361Z,84.45
2018-12-18T17:25:09.303Z,86.32
2018-12-18T17:26:39.232Z,86.58
2018-12-18T17:28:09.354Z,85.06
2018-12-18T17:29:39.272Z,86.78
2018-12-18T17:31:09.275Z,86.07
2018-12-18T17:32:39.264Z,86.34
2018-12-18T17:34:09.248Z,88.04
2018-12-18T17:35:40.456Z,87.53
2018-12-18T17:37:10.415Z,88.26
2018-12-18T17:38:50.855Z,87.51
2018-12-18T17:40:21.272Z,88.54
2018-12-18T17:41:51.268Z,88.55
2018-12-18T17:43:21.735Z,87.54
2018-12-18T17:44:51.759Z,87.82
2018-12-18T17:46:21.708Z,88.47
2018-12-18T17:47:51.817Z,88.45
2018-12-18T17:49:21.760Z,88.06
2018-12-18T17:50:51.719Z,88.67
2018-12-18T17:52:21.731Z,88.29
2018-12-18T17:53:51.822Z,89.82
2018-12-18T17:55:21.797Z,88.91
2018-12-18T17:56:51.812Z,89.91
2018-12-18T17:58:21.856Z,89.54
2018-12-18T17:59:51.857Z,90.27
2018-12-18T18:01:21.927Z,90.92
2018-12-18T18:02:52.012Z,89.15
2018-12-18T18:04:21.984Z,88.65
2018-12-18T18:05:53.944Z,87.64
2018-12-18T18:07:23.963Z,89.06
2018-12-18T18:08:54.037Z,88.66
2018-12-18T18:10:24.058Z,88.35
2018-12-18T18:11:54.153Z,87.43
2018-12-18T18:13:24.213Z,87.44
2018-12-18T18:14:54.219Z,88.63
2018-12-18T18:16:24.237Z,88.74
2018-12-18T18:17:54.372Z,88.41
2018-12-18T18:19:24.358Z,87.32
2018-12-18T18:20:54.422Z,89.09
2018-12-18T18:22:24.486Z,88.25
2018-12-18T18:24:07.873Z,87.68
2018-12-18T18:25:37.813Z,88.10
2018-12-18T18:27:08.016Z,88.56
2018-12-18T18:28:38.243Z,88.03
2018-12-18T18:30:08.581Z,88.11
2018-12-18T18:31:39.544Z,88.65
2018-12-18T18:33:09.622Z,89.11
2018-12-18T18:34:39.658Z,89.91
2018-12-18T18:36:09.620Z,90.57
2018-12-18T18:37:39.680Z,89.62
2018-12-18T18:39:09.663Z,89.91
2018-12-18T18:40:39.777Z,90.20
2018-12-18T18:42:09.988Z,88.48
2018-12-18T18:43:40.156Z,88.15
2018-12-18T18:45:13.019Z,88.23
2018-12-18T18:46:43.377Z,87.51
2018-12-18T18:48:13.413Z,88.02
2018-12-18T18:49:43.504Z,87.39
2018-12-18T18:51:13.501Z,88.10
2018-12-18T18:52:43.533Z,87.70
2018-12-18T18:54:13.524Z,86.75
2018-12-18T18:55:43.663Z,86.62
2018-12-18T18:57:13.927Z,86.83
2018-12-18T18:58:43.904Z,87.52
2018-12-18T19:00:13.965Z,87.35
2018-12-18T19:01:44.048Z,87.20
2018-12-18T19:03:14.241Z,86.81
2018-12-18T19:04:44.395Z,88.18
2018-12-18T19:06:14.420Z,86.83
2018-12-18T19:07:44.533Z,87.71
2018-12-18T19:09:14.574Z,87.46
2018-12-18T19:10:44.622Z,88.77
2018-12-18T19:12:14.689Z,88.52
2018-12-18T19:13:45.023Z,88.66
2018-12-18T19:15:15.008Z,88.35
2018-12-18T19:16:44.975Z,88.72
2018-12-18T19:18:14.966Z,88.75
2018-12-18T19:19:45.034Z,89.52
2018-12-18T19:21:15.226Z,89.77
2018-12-18T19:22:45.412Z,89.91
2018-12-18T19:24:15.423Z,89.67
2018-12-18T19:25:45.658Z,90.84
2018-12-18T19:27:15.695Z,92.12
2018-12-18T19:28:50.174Z,91.89
2018-12-18T19:30:19.563Z,91.04
2018-12-18T19:31:49.523Z,91.52
2018-12-18T19:33:19.677Z,91.75
2018-12-18T19:34:49.771Z,90.74
2018-12-18T19:36:19.817Z,91.67
2018-12-18T19:37:49.904Z,91.48
2018-12-18T19:39:21.229Z,89.85
2018-12-18T19:40:51.358Z,89.37
2018-12-18T19:42:23.462Z,89.31
2018-12-18T19:43:54.398Z,90.47
2018-12-18T19:45:24.383Z,89.54